Time;durP1;ratioP1;P1;durP2;ratioP2;P2;SDS_P1;SDS_P2;PMS_P1;PMS_P2;Temp;Humidity;BMP_temperature;BMP_pressure;BME280_temperature;BME280_humidity;BME280_pressure;Samples;Min_cycle;Max_cycle;Signal;HPM_P1;HPM_P2
2022/06/14 00:00:57;;;;;;;7.10;4.63;;;16.70;99.90;;;;;;4967264;28;20996;-70
2022/06/14 00:03:28;;;;;;;6.87;4.30;;;16.70;99.90;;;;;;4967108;28;20208;-71
2022/06/14 00:05:55;;;;;;;6.70;4.37;;;16.80;99.90;;;;;;4967044;28;20318;-69
2022/06/14 00:08:22;;;;;;;6.90;5.13;;;16.70;99.90;;;;;;4967407;28;20424;-71
2022/06/14 00:10:48;;;;;;;6.30;4.60;;;16.80;99.90;;;;;;4967680;28;20472;-70
2022/06/14 00:13:15;;;;;;;6.07;4.90;;;16.70;99.90;;;;;;4967161;28;21532;-70
2022/06/14 00:15:41;;;;;;;5.60;4.00;;;16.70;99.90;;;;;;4967344;28;20447;-70
2022/06/14 00:18:07;;;;;;;7.40;4.47;;;16.70;99.90;;;;;;4967364;28;20507;-70
2022/06/14 00:20:33;;;;;;;5.40;4.20;;;16.50;99.90;;;;;;4967194;28;20424;-71
2022/06/14 00:22:59;;;;;;;9.07;5.23;;;16.40;99.90;;;;;;4966841;28;20927;-69
2022/06/14 00:25:32;;;;;;;7.37;4.47;;;16.50;99.90;;;;;;4966752;28;20267;-72
2022/06/14 00:27:57;;;;;;;6.07;4.73;;;16.40;99.90;;;;;;4967451;28;20424;-70
2022/06/14 00:30:25;;;;;;;6.30;4.73;;;16.40;99.90;;;;;;4967034;28;20918;-69
2022/06/14 00:32:51;;;;;;;6.23;5.40;;;16.40;99.90;;;;;;4967014;28;20345;-70
2022/06/14 00:35:17;;;;;;;5.27;4.77;;;16.40;99.90;;;;;;4948967;28;20471;-70
2022/06/14 00:37:43;;;;;;;8.33;4.90;;;16.40;99.90;;;;;;4966406;28;20435;-71
2022/06/14 00:40:12;;;;;;;7.27;4.93;;;16.40;99.90;;;;;;4967119;28;20184;-71
2022/06/14 00:42:38;;;;;;;7.00;5.23;;;16.40;99.90;;;;;;4966807;28;20421;-73
2022/06/14 00:45:30;;;;;;;8.23;4.53;;;16.40;99.90;;;;;;4966778;28;20419;-72
2022/06/14 00:48:08;;;;;;;6.93;4.33;;;16.30;99.90;;;;;;4943708;28;20668;-70
2022/06/14 00:50:44;;;;;;;6.97;4.90;;;16.40;99.90;;;;;;4966703;28;20422;-69
2022/06/14 00:53:13;;;;;;;7.10;4.70;;;16.40;99.90;;;;;;4954782;28;20460;-70
2022/06/14 00:55:45;;;;;;;8.03;4.87;;;16.40;99.90;;;;;;4966507;28;20506;-71
2022/06/14 00:58:18;;;;;;;6.90;4.70;;;16.30;99.90;;;;;;4966561;28;20444;-72
2022/06/14 01:00:51;;;;;;;7.83;4.77;;;16.20;99.90;;;;;;4966281;28;20466;-71
2022/06/14 01:03:23;;;;;;;10.90;4.83;;;16.10;99.90;;;;;;4966399;28;20871;-72
2022/06/14 01:06:08;;;;;;;6.83;5.43;;;16.20;99.90;;;;;;4966438;28;20466;-70
2022/06/14 01:08:48;;;;;;;7.07;5.80;;;16.20;99.90;;;;;;4965318;28;20422;-70
2022/06/14 01:11:22;;;;;;;6.87;4.73;;;16.10;99.90;;;;;;4965843;28;20941;-71
2022/06/14 01:13:48;;;;;;;7.43;4.33;;;16.20;99.90;;;;;;4966285;28;20457;-71
2022/06/14 01:16:14;;;;;;;7.87;4.60;;;16.20;99.90;;;;;;4965831;28;20442;-70
2022/06/14 01:18:40;;;;;;;9.80;5.00;;;16.10;99.90;;;;;;4966093;28;20424;-72
2022/06/14 01:21:06;;;;;;;5.27;4.77;;;16.00;99.90;;;;;;4965955;28;20414;-71
2022/06/14 01:23:32;;;;;;;7.13;5.70;;;15.90;99.90;;;;;;4965076;28;20760;-70
2022/06/14 01:26:22;;;;;;;6.97;4.93;;;15.80;99.90;;;;;;4965937;28;20446;-70
2022/06/14 01:28:54;;;;;;;8.10;5.13;;;15.80;99.90;;;;;;4966041;28;20438;-70
2022/06/14 01:31:22;;;;;;;5.77;4.77;;;15.80;99.90;;;;;;4966093;28;20527;-71
2022/06/14 01:33:51;;;;;;;6.03;5.27;;;15.80;99.90;;;;;;4965744;28;20515;-70
2022/06/14 01:36:33;;;;;;;6.67;5.20;;;15.80;99.90;;;;;;4965824;28;20437;-71
2022/06/14 01:39:01;;;;;;;6.10;5.50;;;15.70;99.90;;;;;;4965464;28;20423;-71
2022/06/14 01:41:30;;;;;;;7.37;4.97;;;15.60;99.90;;;;;;4965675;28;20463;-71
2022/06/14 01:44:21;;;;;;;6.63;5.00;;;15.60;99.90;;;;;;4965767;28;20433;-71
2022/06/14 01:47:08;;;;;;;7.20;4.57;;;15.60;99.90;;;;;;4965616;28;20446;-71
2022/06/14 01:53:37;;;;;;;8.23;5.53;;;15.60;99.90;;;;;;4965632;28;20450;-70
2022/06/14 01:56:10;;;;;;;6.67;5.60;;;15.60;99.90;;;;;;4905491;29;20774;-70
2022/06/14 01:59:14;;;;;;;12.43;6.17;;;15.50;99.90;;;;;;4897576;29;20485;-71
2022/06/14 02:02:29;;;;;;;9.53;4.90;;;15.50;99.90;;;;;;4951397;28;20437;-69
2022/06/14 02:05:14;;;;;;;9.07;5.40;;;15.60;99.90;;;;;;4949860;28;20433;-70
2022/06/14 02:08:03;;;;;;;6.17;5.33;;;15.50;99.90;;;;;;4965180;28;20454;-70
2022/06/14 02:10:53;;;;;;;7.10;5.30;;;15.60;99.90;;;;;;4964995;28;20812;-71
2022/06/14 02:14:00;;;;;;;6.03;5.27;;;15.60;99.90;;;;;;4965344;28;20496;-71
2022/06/14 02:16:47;;;;;;;9.23;5.40;;;15.50;99.90;;;;;;4963027;28;20458;-70
2022/06/14 02:19:20;;;;;;;8.10;5.03;;;15.40;99.90;;;;;;4965208;28;20402;-71
2022/06/14 02:21:50;;;;;;;6.67;5.20;;;15.50;99.90;;;;;;4965388;28;20419;-70
2022/06/14 02:24:23;;;;;;;6.60;5.67;;;15.40;99.90;;;;;;4965129;28;20410;-71
2022/06/14 02:26:56;;;;;;;7.97;5.70;;;15.50;99.90;;;;;;4969269;28;20439;-71
2022/06/14 02:29:21;;;;;;;7.80;6.20;;;15.40;99.90;;;;;;4968959;28;20403;-73
2022/06/14 02:32:18;;;;;;;6.90;5.80;;;15.40;99.90;;;;;;4969320;28;20422;-71
2022/06/14 02:34:58;;;;;;;10.93;5.80;;;15.40;99.90;;;;;;4969107;28;20722;-72
2022/06/14 02:37:30;;;;;;;7.03;5.40;;;15.30;99.90;;;;;;4969007;28;20443;-71
2022/06/14 02:40:01;;;;;;;8.53;5.97;;;15.30;99.90;;;;;;4968635;28;20415;-72
2022/06/14 02:42:38;;;;;;;7.00;5.50;;;15.20;99.90;;;;;;4968963;28;20488;-71
2022/06/14 02:45:17;;;;;;;11.20;5.97;;;15.30;99.90;;;;;;4968920;28;20871;-72
2022/06/14 02:47:48;;;;;;;9.43;5.77;;;15.20;99.90;;;;;;4968815;28;20455;-71
2022/06/14 02:50:33;;;;;;;6.67;5.83;;;15.30;99.90;;;;;;4967024;28;20407;-71
2022/06/14 02:53:20;;;;;;;7.30;5.77;;;15.40;99.90;;;;;;4956725;28;21012;-73
2022/06/14 02:55:59;;;;;;;7.07;5.60;;;15.40;99.90;;;;;;4968338;28;20422;-69
2022/06/14 02:58:32;;;;;;;6.50;5.50;;;15.30;99.90;;;;;;4968520;28;20560;-70
2022/06/14 03:01:40;;;;;;;8.83;5.73;;;15.30;99.90;;;;;;4968769;28;20462;-70
2022/06/14 03:04:15;;;;;;;7.27;6.17;;;15.20;99.90;;;;;;4908502;29;20448;-70
2022/06/14 03:06:58;;;;;;;7.60;5.40;;;15.00;99.90;;;;;;4899164;29;20510;-70
2022/06/14 03:09:31;;;;;;;8.50;6.03;;;15.10;99.90;;;;;;4947271;28;20449;-71
2022/06/14 03:12:33;;;;;;;7.80;5.67;;;15.10;99.90;;;;;;4967015;28;20425;-71
2022/06/14 03:15:11;;;;;;;7.17;6.03;;;15.00;99.90;;;;;;4968229;28;20426;-70
2022/06/14 03:17:53;;;;;;;9.63;5.50;;;14.90;99.90;;;;;;4967020;28;20933;-71
2022/06/14 03:20:43;;;;;;;10.47;5.47;;;15.00;99.90;;;;;;4968144;28;20407;-71
2022/06/14 03:23:20;;;;;;;7.03;5.97;;;14.90;99.90;;;;;;4967951;28;20407;-71
2022/06/14 03:25:58;;;;;;;8.03;5.60;;;15.00;99.90;;;;;;4967973;28;20411;-70
2022/06/14 03:28:47;;;;;;;8.53;6.10;;;15.00;99.90;;;;;;4968051;28;20446;-69
2022/06/14 03:31:16;;;;;;;8.77;6.03;;;15.00;99.90;;;;;;4967787;28;20409;-70
2022/06/14 03:33:49;;;;;;;6.37;5.50;;;15.00;99.90;;;;;;4967743;28;20464;-70
2022/06/14 03:36:15;;;;;;;8.50;5.83;;;15.10;99.90;;;;;;4966598;28;20447;-71
2022/06/14 03:38:48;;;;;;;6.37;5.77;;;15.10;99.90;;;;;;4967590;28;20929;-72
2022/06/14 03:41:17;;;;;;;6.03;5.43;;;15.10;99.90;;;;;;4967634;28;21409;-70
2022/06/14 03:43:43;;;;;;;6.97;5.63;;;15.10;99.90;;;;;;4967667;28;20518;-70
2022/06/14 03:46:21;;;;;;;7.40;6.50;;;15.00;99.90;;;;;;4967816;28;20448;-70
2022/06/14 03:48:50;;;;;;;8.30;5.97;;;15.00;99.90;;;;;;4967929;28;20432;-71
2022/06/14 03:51:21;;;;;;;7.10;5.47;;;15.00;99.90;;;;;;4967551;28;20427;-71
2022/06/14 03:54:31;;;;;;;8.73;5.40;;;15.00;99.90;;;;;;4967174;28;20457;-70
2022/06/14 03:57:17;;;;;;;6.57;5.37;;;15.00;99.90;;;;;;4967841;28;20448;-70
2022/06/14 04:00:13;;;;;;;6.73;6.03;;;14.90;99.90;;;;;;4967626;28;20403;-71
2022/06/14 04:02:54;;;;;;;7.30;5.90;;;15.00;99.90;;;;;;4966609;28;20419;-71
2022/06/14 04:05:31;;;;;;;8.10;6.50;;;15.10;99.90;;;;;;4967401;28;20918;-71
2022/06/14 04:08:12;;;;;;;7.40;5.43;;;15.20;99.90;;;;;;4966994;28;20477;-70
2022/06/14 04:10:47;;;;;;;9.73;6.60;;;15.20;99.90;;;;;;4967257;28;21132;-71
2022/06/14 04:13:15;;;;;;;11.43;6.90;;;15.30;99.90;;;;;;4967263;28;20547;-71
2022/06/14 04:15:52;;;;;;;10.93;6.83;;;15.30;99.90;;;;;;4967078;28;20525;-72
2022/06/14 04:18:36;;;;;;;8.00;6.60;;;15.30;99.90;;;;;;4967183;28;20439;-71
2022/06/14 04:21:30;;;;;;;7.10;6.30;;;15.30;99.90;;;;;;4967297;28;20777;-70
2022/06/14 04:24:07;;;;;;;9.57;6.37;;;15.40;99.90;;;;;;4961937;28;20441;-71
2022/06/14 04:27:05;;;;;;;6.40;5.77;;;15.40;99.90;;;;;;4966878;28;20439;-70
2022/06/14 04:29:38;;;;;;;7.73;6.13;;;15.40;99.90;;;;;;4965483;28;20436;-70
2022/06/14 04:32:14;;;;;;;6.80;5.17;;;15.50;99.90;;;;;;4966825;28;20412;-70
2022/06/14 04:34:54;;;;;;;9.17;6.17;;;15.50;99.90;;;;;;4966424;28;20450;-71
2022/06/14 04:37:33;;;;;;;6.13;5.53;;;15.60;99.90;;;;;;4966495;28;20817;-69
2022/06/14 04:40:17;;;;;;;10.33;6.17;;;15.60;99.90;;;;;;4966211;28;20428;-70
2022/06/14 04:42:52;;;;;;;7.17;5.73;;;15.60;99.90;;;;;;4966659;28;20430;-70
2022/06/14 04:45:30;;;;;;;6.63;6.03;;;15.60;99.90;;;;;;4966783;28;20776;-69
2022/06/14 04:48:09;;;;;;;8.10;6.07;;;15.60;99.90;;;;;;4966202;28;20444;-70
2022/06/14 04:50:43;;;;;;;8.50;6.60;;;15.70;99.90;;;;;;4966325;28;20509;-71
2022/06/14 04:53:18;;;;;;;10.10;6.90;;;15.70;99.90;;;;;;4966359;28;20458;-72
2022/06/14 04:56:11;;;;;;;8.50;5.50;;;15.70;99.90;;;;;;4966281;28;20437;-71
2022/06/14 04:59:04;;;;;;;7.33;5.90;;;15.80;99.90;;;;;;4966353;28;20499;-72
2022/06/14 05:01:37;;;;;;;7.30;6.60;;;15.90;99.90;;;;;;4966542;28;20415;-71
2022/06/14 05:04:12;;;;;;;9.00;6.17;;;15.90;99.90;;;;;;4966040;28;20413;-70
2022/06/14 05:06:46;;;;;;;6.97;5.70;;;16.00;99.90;;;;;;4966176;28;20815;-71
2022/06/14 05:09:37;;;;;;;7.73;6.50;;;16.20;99.90;;;;;;4965892;28;20488;-70
2022/06/14 05:12:12;;;;;;;11.50;7.10;;;16.30;99.90;;;;;;4966175;28;20435;-70
2022/06/14 05:14:44;;;;;;;6.63;6.03;;;16.40;99.90;;;;;;4965632;28;20462;-70
2022/06/14 05:17:20;;;;;;;8.20;6.60;;;16.50;99.90;;;;;;4965964;28;20442;-71
2022/06/14 05:19:48;;;;;;;7.93;6.63;;;16.60;99.90;;;;;;4966434;28;20403;-70
2022/06/14 05:22:24;;;;;;;14.53;6.87;;;16.70;99.90;;;;;;4965953;28;20428;-68
2022/06/14 05:24:50;;;;;;;12.23;8.00;;;16.90;99.90;;;;;;4964922;28;20423;-70
2022/06/14 05:27:24;;;;;;;7.17;6.33;;;17.00;99.90;;;;;;4966287;28;20450;-71
2022/06/14 05:30:09;;;;;;;10.77;6.83;;;17.20;99.90;;;;;;4965800;28;20199;-69
2022/06/14 05:32:50;;;;;;;11.20;8.17;;;17.30;99.90;;;;;;4948631;28;20459;-71
2022/06/14 05:35:24;;;;;;;10.43;7.30;;;17.40;99.90;;;;;;4965557;28;20451;-72
2022/06/14 05:38:00;;;;;;;10.27;7.70;;;17.50;99.90;;;;;;4965906;28;20448;-70
2022/06/14 05:40:34;;;;;;;13.00;10.10;;;17.60;99.90;;;;;;4965440;28;20411;-70
2022/06/14 05:43:15;;;;;;;15.43;9.13;;;17.70;99.90;;;;;;4965592;28;20476;-70
2022/06/14 05:45:44;;;;;;;10.87;8.37;;;17.80;99.90;;;;;;4965658;28;20400;-71
2022/06/14 05:48:16;;;;;;;8.93;6.90;;;17.90;99.90;;;;;;4965519;28;20921;-71
2022/06/14 05:50:47;;;;;;;12.13;7.20;;;18.00;99.90;;;;;;4965853;28;20412;-70
2022/06/14 05:53:23;;;;;;;9.30;7.27;;;18.10;99.90;;;;;;4965557;28;20467;-70
2022/06/14 05:55:55;;;;;;;7.30;6.60;;;18.20;99.90;;;;;;4964778;28;20444;-70
2022/06/14 05:58:44;;;;;;;16.97;10.10;;;18.30;99.90;;;;;;4965619;28;20880;-70
2022/06/14 06:01:16;;;;;;;8.33;7.20;;;18.60;99.90;;;;;;4964821;28;20415;-70
2022/06/14 06:04:05;;;;;;;8.03;5.90;;;18.70;99.90;;;;;;4965394;28;20413;-68
2022/06/14 06:06:35;;;;;;;10.90;6.60;;;18.80;99.90;;;;;;4964999;28;20460;-71
2022/06/14 06:09:07;;;;;;;11.93;8.00;;;18.90;99.90;;;;;;4964954;28;20424;-72
2022/06/14 06:11:43;;;;;;;11.57;7.53;;;18.90;99.90;;;;;;4965281;28;20456;-70
2022/06/14 06:14:13;;;;;;;11.00;7.30;;;18.70;99.90;;;;;;4965342;28;20523;-71
2022/06/14 06:16:48;;;;;;;8.40;6.60;;;18.60;99.90;;;;;;4965532;28;20492;-72
2022/06/14 06:19:21;;;;;;;9.23;6.50;;;18.80;99.90;;;;;;4965085;28;20460;-72
2022/06/14 06:22:06;;;;;;;8.20;6.83;;;19.00;99.90;;;;;;4948134;28;20867;-71
2022/06/14 06:24:39;;;;;;;9.10;7.50;;;18.90;99.90;;;;;;4965301;28;20416;-71
2022/06/14 06:27:10;;;;;;;9.87;7.53;;;18.60;99.90;;;;;;4965008;28;20447;-70
2022/06/14 06:30:19;;;;;;;9.63;7.30;;;18.60;99.90;;;;;;4965141;28;20417;-70
2022/06/14 06:32:45;;;;;;;8.63;7.30;;;18.50;99.90;;;;;;4964835;28;20415;-70
2022/06/14 06:35:12;;;;;;;7.83;6.87;;;18.60;99.90;;;;;;4965096;28;20780;-71
2022/06/14 06:37:46;;;;;;;12.83;7.37;;;18.30;99.90;;;;;;4964814;28;20495;-71
2022/06/14 06:40:19;;;;;;;10.23;6.83;;;18.50;99.90;;;;;;4964788;28;20410;-70
2022/06/14 06:43:00;;;;;;;9.47;7.30;;;18.40;99.90;;;;;;4964694;28;20417;-70
2022/06/14 06:45:45;;;;;;;7.33;6.13;;;18.40;99.90;;;;;;4964974;28;20397;-72
2022/06/14 06:48:23;;;;;;;9.33;6.43;;;18.60;99.90;;;;;;4965104;28;20420;-70
2022/06/14 06:50:53;;;;;;;8.60;6.37;;;18.90;99.90;;;;;;4964972;28;20419;-70
2022/06/14 06:53:21;;;;;;;11.07;6.17;;;19.10;99.90;;;;;;4965038;28;20914;-71
2022/06/14 06:56:12;;;;;;;7.33;6.50;;;19.30;99.90;;;;;;4963588;28;20937;-69
2022/06/14 06:58:53;;;;;;;13.77;7.00;;;19.30;99.90;;;;;;4964695;28;20413;-70
2022/06/14 07:01:31;;;;;;;9.80;6.40;;;19.40;99.90;;;;;;4965063;28;20413;-69
2022/06/14 07:07:22;;;;;;;11.03;6.37;;;19.60;99.90;;;;;;4964802;28;20639;-71
2022/06/14 07:10:09;;;;;;;8.20;6.10;;;19.70;99.90;;;;;;4964556;28;20435;-70
2022/06/14 07:12:42;;;;;;;10.40;6.57;;;19.60;99.90;;;;;;4968125;28;20416;-70
2022/06/14 07:15:19;;;;;;;8.87;5.73;;;19.70;99.90;;;;;;4968472;28;20535;-72
2022/06/14 07:17:45;;;;;;;9.93;6.50;;;19.70;99.90;;;;;;4967399;28;20507;-70
2022/06/14 07:20:33;;;;;;;9.33;5.67;;;19.60;99.90;;;;;;4968149;28;20495;-71
2022/06/14 07:23:18;;;;;;;7.40;6.50;;;19.80;99.90;;;;;;4967947;28;20260;-70
2022/06/14 07:25:59;;;;;;;10.23;6.50;;;19.60;99.90;;;;;;4967828;28;20409;-70
2022/06/14 07:28:42;;;;;;;7.10;6.40;;;19.60;99.90;;;;;;4967781;28;20419;-70
2022/06/14 07:31:17;;;;;;;11.17;6.20;;;19.80;99.90;;;;;;4967883;28;20408;-70
2022/06/14 07:33:43;;;;;;;11.77;6.17;;;19.90;99.90;;;;;;4967813;28;20642;-70
2022/06/14 07:36:20;;;;;;;9.87;5.73;;;19.80;99.90;;;;;;4967680;28;20528;-70
2022/06/14 07:38:54;;;;;;;6.20;5.33;;;19.90;99.90;;;;;;4966923;28;20196;-70
2022/06/14 07:41:50;;;;;;;6.37;5.77;;;20.00;99.90;;;;;;4967941;28;20401;-69
2022/06/14 07:44:34;;;;;;;10.60;6.10;;;20.30;99.90;;;;;;4967930;28;20467;-71
2022/06/14 07:47:30;;;;;;;9.67;6.87;;;20.30;99.90;;;;;;4967623;28;20450;-70
2022/06/14 07:50:04;;;;;;;11.10;6.60;;;20.40;99.90;;;;;;4968140;28;20827;-70
2022/06/14 07:53:00;;;;;;;12.67;6.30;;;20.60;99.90;;;;;;4967610;28;20750;-70
2022/06/14 07:55:32;;;;;;;10.37;6.43;;;20.80;99.90;;;;;;4966233;28;20445;-70
2022/06/14 07:58:07;;;;;;;8.50;5.83;;;20.60;99.90;;;;;;4967343;28;20482;-70
2022/06/14 08:03:49;;;;;;;8.80;5.80;;;20.40;99.90;;;;;;4968155;28;20496;-73
2022/06/14 08:06:27;;;;;;;8.67;5.73;;;20.70;99.90;;;;;;4940903;28;20472;-69
2022/06/14 08:09:01;;;;;;;7.13;5.73;;;20.60;99.90;;;;;;4966998;28;20816;-70
2022/06/14 08:11:34;;;;;;;7.87;5.60;;;20.60;99.90;;;;;;4967287;28;20979;-70
2022/06/14 08:14:06;;;;;;;7.53;5.63;;;20.50;99.90;;;;;;4967182;28;20476;-70
2022/06/14 08:16:33;;;;;;;7.00;5.67;;;20.70;99.90;;;;;;4967167;28;20448;-71
2022/06/14 08:19:06;;;;;;;9.13;5.80;;;20.40;99.90;;;;;;4967658;28;20873;-70
2022/06/14 08:21:40;;;;;;;10.33;6.00;;;20.40;99.90;;;;;;4967186;28;20463;-72
2022/06/14 08:24:15;;;;;;;7.83;5.77;;;20.60;99.90;;;;;;4966164;28;20409;-72
2022/06/14 08:27:04;;;;;;;7.53;5.53;;;20.80;99.90;;;;;;4966802;28;20436;-69
2022/06/14 08:29:54;;;;;;;7.87;6.00;;;21.20;99.90;;;;;;4966857;28;20412;-70
2022/06/14 08:32:38;;;;;;;6.80;5.67;;;21.00;99.90;;;;;;4966601;28;20463;-71
2022/06/14 08:35:16;;;;;;;8.67;5.67;;;21.20;99.70;;;;;;4967146;28;20972;-70
2022/06/14 08:38:13;;;;;;;7.10;5.70;;;21.40;99.80;;;;;;4966919;28;20432;-70
2022/06/14 08:40:57;;;;;;;8.07;6.00;;;21.20;99.80;;;;;;4966377;28;20415;-70
2022/06/14 08:43:29;;;;;;;6.33;5.03;;;21.10;99.60;;;;;;4966761;28;20404;-70
2022/06/14 08:46:06;;;;;;;6.90;6.10;;;21.20;99.40;;;;;;4966642;28;20476;-69
2022/06/14 08:48:42;;;;;;;7.07;5.50;;;21.30;99.70;;;;;;4967067;28;20415;-72
2022/06/14 08:51:19;;;;;;;6.43;5.73;;;21.40;99.60;;;;;;4966506;28;20601;-70
2022/06/14 08:54:11;;;;;;;7.03;5.40;;;21.70;99.20;;;;;;4966490;28;20455;-69
2022/06/14 08:56:49;;;;;;;9.90;5.70;;;21.80;99.20;;;;;;4966507;28;20429;-70
2022/06/14 08:59:36;;;;;;;8.97;5.80;;;22.00;98.50;;;;;;4966575;28;20408;-71
2022/06/14 09:02:43;;;;;;;7.60;5.33;;;22.00;99.10;;;;;;4966523;28;20904;-69
2022/06/14 09:05:26;;;;;;;8.00;5.80;;;22.20;98.20;;;;;;4966127;28;20424;-72
2022/06/14 09:08:19;;;;;;;11.93;5.87;;;22.30;97.60;;;;;;4966258;28;20486;-70
2022/06/14 09:11:13;;;;;;;8.60;5.10;;;22.40;97.90;;;;;;4965812;28;20936;-71
2022/06/14 09:13:57;;;;;;;5.60;4.70;;;22.70;96.80;;;;;;4966230;28;20455;-72
2022/06/14 09:16:26;;;;;;;5.70;4.80;;;22.50;96.20;;;;;;4965867;28;20439;-70
2022/06/14 09:18:54;;;;;;;7.07;4.80;;;22.40;96.10;;;;;;4966381;28;20405;-72
2022/06/14 09:21:31;;;;;;;6.63;4.50;;;22.40;96.90;;;;;;4966183;28;20431;-70
2022/06/14 09:24:28;;;;;;;7.97;5.00;;;22.40;95.70;;;;;;4965234;28;20844;-70
2022/06/14 09:27:18;;;;;;;5.97;4.40;;;22.30;96.50;;;;;;4965801;28;20435;-71
2022/06/14 09:29:55;;;;;;;5.27;3.40;;;22.50;96.30;;;;;;4966041;28;20997;-71
2022/06/14 09:35:52;;;;;;;7.70;4.20;;;23.00;93.80;;;;;;4965082;28;20407;-70
2022/06/14 09:38:34;;;;;;;7.80;4.57;;;23.10;93.40;;;;;;4965919;28;20411;-71
2022/06/14 09:41:35;;;;;;;5.67;4.40;;;23.20;93.80;;;;;;4965808;28;20494;-71
2022/06/14 09:44:42;;;;;;;5.70;3.60;;;23.20;92.90;;;;;;4965542;28;20451;-71
2022/06/14 09:47:31;;;;;;;5.10;3.73;;;23.20;91.80;;;;;;4964972;28;20447;-70
2022/06/14 09:50:18;;;;;;;5.77;3.20;;;23.40;92.00;;;;;;4965176;28;20771;-70
2022/06/14 09:53:26;;;;;;;8.70;3.57;;;23.60;90.90;;;;;;4965542;28;20415;-72
2022/06/14 09:56:27;;;;;;;4.97;3.90;;;23.60;89.80;;;;;;4965696;28;20424;-70
2022/06/14 09:59:06;;;;;;;6.93;4.17;;;23.60;90.20;;;;;;5008094;23;20490;-70
2022/06/14 10:02:11;;;;;;;5.13;3.70;;;23.40;89.50;;;;;;5000202;28;20427;-70
2022/06/14 10:05:02;;;;;;;4.93;3.90;;;23.40;90.30;;;;;;4938674;28;20422;-70
2022/06/14 10:07:45;;;;;;;4.83;4.43;;;23.50;90.30;;;;;;4981360;28;20415;-72
2022/06/14 10:10:13;;;;;;;6.17;3.80;;;23.60;90.00;;;;;;4969674;28;20401;-73
2022/06/14 10:12:57;;;;;;;7.10;4.80;;;23.50;88.30;;;;;;4958867;28;20470;-72
2022/06/14 10:15:47;;;;;;;6.00;4.37;;;23.00;90.20;;;;;;4976877;28;20412;-70
2022/06/14 10:18:52;;;;;;;5.87;4.77;;;23.30;91.80;;;;;;4971941;28;20423;-72
2022/06/14 10:21:25;;;;;;;6.03;5.07;;;23.70;90.80;;;;;;4970419;28;20948;-71
2022/06/14 10:24:12;;;;;;;8.40;4.50;;;23.70;90.10;;;;;;4979689;28;20408;-70
2022/06/14 10:29:56;;;;;;;6.60;4.93;;;23.90;89.90;;;;;;4969159;28;20420;-69
2022/06/14 10:32:31;;;;;;;7.50;4.50;;;23.60;90.50;;;;;;4980316;28;20792;-71
2022/06/14 10:35:01;;;;;;;6.67;5.20;;;23.60;91.30;;;;;;4965747;28;20860;-70
2022/06/14 10:38:04;;;;;;;6.70;4.77;;;23.60;90.70;;;;;;4974811;28;20405;-71
2022/06/14 10:40:51;;;;;;;6.03;4.40;;;23.70;91.20;;;;;;4974563;28;20415;-72
2022/06/14 10:43:55;;;;;;;5.13;4.63;;;24.00;90.90;;;;;;4974163;28;20443;-69
2022/06/14 10:46:28;;;;;;;6.87;4.40;;;24.00;91.20;;;;;;4906757;29;20433;-70
2022/06/14 10:49:47;;;;;;;6.27;4.93;;;24.30;90.00;;;;;;4972157;28;20551;-72
2022/06/14 10:52:27;;;;;;;7.60;4.17;;;24.50;90.10;;;;;;4908833;29;20474;-70
2022/06/14 10:55:15;;;;;;;4.80;4.40;;;24.50;89.30;;;;;;4910034;29;20486;-70
2022/06/14 10:57:56;;;;;;;7.20;4.43;;;24.40;88.50;;;;;;4975530;28;20419;-71
2022/06/14 11:00:37;;;;;;;5.63;4.63;;;24.60;88.70;;;;;;4974982;28;20540;-70
2022/06/14 11:03:18;;;;;;;8.87;4.33;;;24.80;88.90;;;;;;4984279;28;20500;-70
2022/06/14 11:05:54;;;;;;;6.40;4.30;;;24.90;86.60;;;;;;4979005;28;20400;-71
2022/06/14 11:08:38;;;;;;;6.60;3.37;;;25.20;87.30;;;;;;4987666;28;20437;-73
2022/06/14 11:11:21;;;;;;;8.90;4.83;;;25.30;86.40;;;;;;4979862;28;20893;-71
2022/06/14 11:14:08;;;;;;;8.03;4.50;;;25.10;83.80;;;;;;4969616;28;21034;-72
2022/06/14 11:16:51;;;;;;;6.00;4.17;;;25.20;87.30;;;;;;4977663;28;20420;-71
2022/06/14 11:19:50;;;;;;;6.50;4.63;;;25.60;84.60;;;;;;4986658;28;20424;-71
2022/06/14 11:22:36;;;;;;;7.60;4.70;;;25.50;83.50;;;;;;4975632;28;20543;-71
2022/06/14 11:25:35;;;;;;;4.53;3.87;;;25.50;84.70;;;;;;4973502;28;20791;-72
2022/06/14 11:28:25;;;;;;;4.30;3.80;;;25.50;85.20;;;;;;4976405;28;20463;-72
2022/06/14 11:31:31;;;;;;;5.53;4.40;;;25.80;81.10;;;;;;4971049;28;20408;-70
2022/06/14 11:34:23;;;;;;;4.80;3.83;;;26.00;81.60;;;;;;4971490;28;20456;-73
2022/06/14 11:37:08;;;;;;;3.60;3.30;;;28.10;76.50;;;;;;4986814;28;20499;-72
2022/06/14 11:39:44;;;;;;;5.20;3.67;;;29.80;74.30;;;;;;4986924;28;20428;-70
2022/06/14 11:42:23;;;;;;;6.60;3.67;;;31.10;63.50;;;;;;4966627;28;20436;-71
2022/06/14 11:44:58;;;;;;;4.40;3.83;;;30.80;61.20;;;;;;4986683;28;21550;-73
2022/06/14 11:47:33;;;;;;;4.33;3.33;;;31.60;60.90;;;;;;4984859;28;20418;-73
2022/06/14 11:50:31;;;;;;;5.17;3.33;;;31.50;57.50;;;;;;4973309;28;20440;-71
2022/06/14 11:53:18;;;;;;;4.90;3.30;;;32.10;55.30;;;;;;4986722;28;20721;-73
2022/06/14 11:56:18;;;;;;;4.43;3.37;;;32.40;53.60;;;;;;4987422;28;20499;-69
2022/06/14 11:59:03;;;;;;;5.93;2.93;;;32.20;52.40;;;;;;4975802;28;20513;-70
2022/06/14 12:01:41;;;;;;;5.13;3.20;;;33.70;49.40;;;;;;4986479;28;20438;-70
2022/06/14 12:04:30;;;;;;;6.97;3.10;;;33.00;53.60;;;;;;4986697;28;20404;-71
2022/06/14 12:06:58;;;;;;;3.40;3.07;;;33.90;50.60;;;;;;4976321;28;20443;-73
2022/06/14 12:09:51;;;;;;;6.10;3.50;;;33.90;48.80;;;;;;4986453;28;20443;-70
2022/06/14 12:13:02;;;;;;;4.33;3.10;;;32.50;49.50;;;;;;4973412;28;20420;-71
2022/06/14 12:15:58;;;;;;;4.40;3.20;;;32.50;49.60;;;;;;4977600;28;20471;-71
2022/06/14 12:18:27;;;;;;;5.30;3.47;;;33.70;49.80;;;;;;4970122;28;20499;-72
2022/06/14 12:21:05;;;;;;;4.37;3.20;;;33.60;49.60;;;;;;4981188;28;20418;-69
2022/06/14 12:23:42;;;;;;;4.77;2.77;;;33.30;46.90;;;;;;4986277;28;20396;-70
2022/06/14 12:26:42;;;;;;;4.70;3.03;;;32.50;50.70;;;;;;4965537;28;20787;-70
2022/06/14 12:29:18;;;;;;;4.37;3.00;;;33.00;48.00;;;;;;4964817;28;20441;-70
2022/06/14 12:31:53;;;;;;;4.50;3.00;;;33.20;47.30;;;;;;4969568;28;20405;-69
2022/06/14 12:34:29;;;;;;;6.43;3.00;;;33.80;46.80;;;;;;4974358;28;20438;-69
2022/06/14 12:37:02;;;;;;;4.30;2.60;;;34.70;44.40;;;;;;4967501;28;21012;-71
2022/06/14 12:39:34;;;;;;;6.23;3.13;;;35.20;45.30;;;;;;4973750;28;20432;-71
2022/06/14 12:42:30;;;;;;;3.73;3.17;;;35.70;43.90;;;;;;4970843;28;21537;-72
2022/06/14 12:45:07;;;;;;;4.33;3.30;;;36.80;43.90;;;;;;4980262;28;20418;-71
2022/06/14 12:48:01;;;;;;;4.07;3.10;;;35.50;42.40;;;;;;4985260;28;20414;-71
2022/06/14 12:50:35;;;;;;;4.70;2.90;;;35.50;43.10;;;;;;4973600;28;20424;-71
2022/06/14 12:53:27;;;;;;;6.23;3.10;;;35.80;42.20;;;;;;4985871;28;20771;-71
2022/06/14 12:55:59;;;;;;;4.50;2.70;;;37.20;41.30;;;;;;4966972;28;20495;-70
2022/06/14 12:58:48;;;;;;;4.70;3.00;;;35.40;41.20;;;;;;4985297;28;20838;-71
2022/06/14 13:01:35;;;;;;;4.40;2.50;;;34.00;41.80;;;;;;4975784;28;20448;-72
2022/06/14 13:04:16;;;;;;;3.80;3.03;;;33.70;42.50;;;;;;4976204;28;20408;-70
2022/06/14 13:06:59;;;;;;;8.13;3.33;;;34.60;42.90;;;;;;4973641;28;20543;-70
2022/06/14 13:09:43;;;;;;;3.03;2.50;;;34.30;42.10;;;;;;4979096;28;20460;-70
2022/06/14 13:12:19;;;;;;;4.97;2.80;;;34.80;41.50;;;;;;4971171;28;20409;-71
2022/06/14 13:15:10;;;;;;;2.97;2.77;;;35.70;41.40;;;;;;4975735;28;20474;-71
2022/06/14 13:17:55;;;;;;;4.20;2.90;;;35.00;41.30;;;;;;4985435;28;20415;-70
2022/06/14 13:20:51;;;;;;;3.53;3.23;;;33.30;42.90;;;;;;4972338;28;20433;-70
2022/06/14 13:23:23;;;;;;;5.43;3.13;;;33.70;45.00;;;;;;4980658;28;20558;-71
2022/06/14 13:26:16;;;;;;;4.63;3.27;;;35.30;42.10;;;;;;4978927;28;20438;-70
2022/06/14 13:28:50;;;;;;;3.53;2.80;;;35.00;41.30;;;;;;4984209;28;20523;-71
2022/06/14 13:32:04;;;;;;;3.90;3.20;;;33.60;43.00;;;;;;4973095;28;20422;-71
2022/06/14 13:34:51;;;;;;;5.67;3.17;;;34.00;42.10;;;;;;4967173;28;20496;-71
2022/06/14 13:37:43;;;;;;;3.50;2.90;;;33.60;43.70;;;;;;4976476;28;20425;-69
2022/06/14 13:40:17;;;;;;;3.70;2.60;;;33.00;44.50;;;;;;4974782;28;20544;-71
2022/06/14 13:43:08;;;;;;;4.93;2.77;;;33.80;42.80;;;;;;4968472;28;20425;-71
2022/06/14 13:45:59;;;;;;;4.43;3.40;;;34.60;41.20;;;;;;4985072;28;20446;-70
2022/06/14 13:48:38;;;;;;;4.10;2.73;;;34.30;41.30;;;;;;4978912;28;20980;-71
2022/06/14 13:51:28;;;;;;;4.30;2.90;;;34.70;42.40;;;;;;4972218;28;20409;-71
2022/06/14 13:54:06;;;;;;;4.57;3.30;;;35.40;41.10;;;;;;4979760;28;20439;-69
2022/06/14 13:56:59;;;;;;;3.63;3.00;;;35.20;40.90;;;;;;4984898;28;20408;-69
2022/06/14 13:59:33;;;;;;;3.60;2.80;;;35.10;39.70;;;;;;4983713;28;20447;-71
2022/06/14 14:02:47;;;;;;;4.47;3.20;;;34.90;40.30;;;;;;4972776;28;20447;-71
2022/06/14 14:05:35;;;;;;;3.30;2.67;;;35.30;39.90;;;;;;4924121;29;20461;-72
2022/06/14 14:08:09;;;;;;;4.60;2.73;;;35.20;39.50;;;;;;4908658;29;20414;-71
2022/06/14 14:10:58;;;;;;;4.77;2.93;;;36.30;38.40;;;;;;4955098;28;20419;-70